sensor_id;sensor_type;location;lat;lon;timestamp;P1;durP1;ratioP1;P2;durP2;ratioP2
20830;SDS011;10576;53.556;9.868;2022-10-31T00:02:07;26.52;;;18.95;;
20830;SDS011;10576;53.556;9.868;2022-10-31T00:04:33;23.30;;;18.05;;
20830;SDS011;10576;53.556;9.868;2022-10-31T00:06:58;25.83;;;18.40;;
20830;SDS011;10576;53.556;9.868;2022-10-31T00:09:24;28.20;;;19.47;;
20830;SDS011;10576;53.556;9.868;2022-10-31T00:11:49;24.97;;;18.47;;
20830;SDS011;10576;53.556;9.868;2022-10-31T00:14:15;26.63;;;19.83;;
20830;SDS011;10576;53.556;9.868;2022-10-31T00:16:41;23.73;;;18.30;;
20830;SDS011;10576;53.556;9.868;2022-10-31T00:19:07;25.03;;;18.77;;
20830;SDS011;10576;53.556;9.868;2022-10-31T00:21:33;26.33;;;18.70;;
20830;SDS011;10576;53.556;9.868;2022-10-31T00:24:00;24.25;;;18.63;;
20830;SDS011;10576;53.556;9.868;2022-10-31T00:26:29;25.75;;;18.88;;
20830;SDS011;10576;53.556;9.868;2022-10-31T00:28:56;24.23;;;19.02;;
20830;SDS011;10576;53.556;9.868;2022-10-31T00:31:22;25.00;;;18.75;;
20830;SDS011;10576;53.556;9.868;2022-10-31T00:33:48;25.80;;;18.50;;
20830;SDS011;10576;53.556;9.868;2022-10-31T00:36:15;23.65;;;17.77;;
20830;SDS011;10576;53.556;9.868;2022-10-31T00:38:42;25.05;;;18.30;;
20830;SDS011;10576;53.556;9.868;2022-10-31T00:41:09;24.45;;;18.15;;
20830;SDS011;10576;53.556;9.868;2022-10-31T00:43:35;22.92;;;17.02;;
20830;SDS011;10576;53.556;9.868;2022-10-31T00:46:01;25.35;;;17.58;;
20830;SDS011;10576;53.556;9.868;2022-10-31T00:48:27;22.65;;;17.45;;
20830;SDS011;10576;53.556;9.868;2022-10-31T00:50:53;21.52;;;17.70;;
20830;SDS011;10576;53.556;9.868;2022-10-31T00:53:19;24.10;;;18.40;;
20830;SDS011;10576;53.556;9.868;2022-10-31T00:55:44;26.33;;;18.63;;
20830;SDS011;10576;53.556;9.868;2022-10-31T00:58:10;23.00;;;18.40;;
20830;SDS011;10576;53.556;9.868;2022-10-31T01:00:36;21.73;;;18.40;;
20830;SDS011;10576;53.556;9.868;2022-10-31T01:03:01;24.63;;;18.00;;
20830;SDS011;10576;53.556;9.868;2022-10-31T01:05:27;25.00;;;18.00;;
20830;SDS011;10576;53.556;9.868;2022-10-31T01:07:53;24.33;;;18.33;;
20830;SDS011;10576;53.556;9.868;2022-10-31T01:10:18;22.47;;;17.57;;
20830;SDS011;10576;53.556;9.868;2022-10-31T01:12:45;27.60;;;17.37;;
20830;SDS011;10576;53.556;9.868;2022-10-31T01:15:13;25.23;;;18.67;;
20830;SDS011;10576;53.556;9.868;2022-10-31T01:17:40;24.55;;;17.92;;
20830;SDS011;10576;53.556;9.868;2022-10-31T01:20:07;22.60;;;18.00;;
20830;SDS011;10576;53.556;9.868;2022-10-31T01:22:33;22.70;;;17.40;;
20830;SDS011;10576;53.556;9.868;2022-10-31T01:24:59;22.08;;;17.70;;
20830;SDS011;10576;53.556;9.868;2022-10-31T01:27:25;24.70;;;17.20;;
20830;SDS011;10576;53.556;9.868;2022-10-31T01:29:51;23.43;;;17.40;;
20830;SDS011;10576;53.556;9.868;2022-10-31T01:32:17;21.83;;;17.60;;
20830;SDS011;10576;53.556;9.868;2022-10-31T01:34:42;24.47;;;17.47;;
20830;SDS011;10576;53.556;9.868;2022-10-31T01:37:08;23.10;;;17.97;;
20830;SDS011;10576;53.556;9.868;2022-10-31T01:39:33;24.43;;;18.50;;
20830;SDS011;10576;53.556;9.868;2022-10-31T01:41:59;20.40;;;17.67;;
20830;SDS011;10576;53.556;9.868;2022-10-31T01:49:24;19.92;;;17.75;;
20830;SDS011;10576;53.556;9.868;2022-10-31T01:54:45;25.60;;;18.20;;
20830;SDS011;10576;53.556;9.868;2022-10-31T01:57:15;27.00;;;19.45;;
20830;SDS011;10576;53.556;9.868;2022-10-31T01:59:47;27.10;;;20.58;;
20830;SDS011;10576;53.556;9.868;2022-10-31T02:02:17;33.50;;;22.50;;
20830;SDS011;10576;53.556;9.868;2022-10-31T02:04:43;27.10;;;21.67;;
20830;SDS011;10576;53.556;9.868;2022-10-31T02:07:54;26.42;;;20.90;;
20830;SDS011;10576;53.556;9.868;2022-10-31T02:10:05;31.20;;;20.95;;
20830;SDS011;10576;53.556;9.868;2022-10-31T02:12:32;31.15;;;21.92;;
20830;SDS011;10576;53.556;9.868;2022-10-31T02:15:01;30.73;;;22.77;;
20830;SDS011;10576;53.556;9.868;2022-10-31T02:17:28;30.90;;;21.67;;
20830;SDS011;10576;53.556;9.868;2022-10-31T02:19:58;31.67;;;22.75;;
20830;SDS011;10576;53.556;9.868;2022-10-31T02:25:29;32.47;;;22.73;;
20830;SDS011;10576;53.556;9.868;2022-10-31T02:28:23;32.33;;;22.27;;
20830;SDS011;10576;53.556;9.868;2022-10-31T02:38:51;37.97;;;24.90;;
20830;SDS011;10576;53.556;9.868;2022-10-31T02:41:29;33.33;;;23.85;;
20830;SDS011;10576;53.556;9.868;2022-10-31T02:44:00;32.13;;;23.52;;
20830;SDS011;10576;53.556;9.868;2022-10-31T02:52:17;37.60;;;24.83;;
20830;SDS011;10576;53.556;9.868;2022-10-31T02:54:43;34.90;;;24.90;;
20830;SDS011;10576;53.556;9.868;2022-10-31T02:57:11;37.70;;;24.90;;
20830;SDS011;10576;53.556;9.868;2022-10-31T02:59:39;35.17;;;24.98;;
20830;SDS011;10576;53.556;9.868;2022-10-31T03:02:46;34.28;;;24.88;;
20830;SDS011;10576;53.556;9.868;2022-10-31T03:08:06;33.10;;;24.45;;
20830;SDS011;10576;53.556;9.868;2022-10-31T03:10:54;37.17;;;24.98;;
20830;SDS011;10576;53.556;9.868;2022-10-31T03:16:08;36.63;;;25.90;;
20830;SDS011;10576;53.556;9.868;2022-10-31T03:19:17;40.85;;;25.73;;
20830;SDS011;10576;53.556;9.868;2022-10-31T03:21:30;36.85;;;26.42;;
20830;SDS011;10576;53.556;9.868;2022-10-31T03:24:00;36.53;;;26.20;;
20830;SDS011;10576;53.556;9.868;2022-10-31T03:26:28;37.13;;;26.23;;
20830;SDS011;10576;53.556;9.868;2022-10-31T03:29:05;40.55;;;26.35;;
20830;SDS011;10576;53.556;9.868;2022-10-31T03:31:33;40.58;;;26.15;;
20830;SDS011;10576;53.556;9.868;2022-10-31T03:34:03;46.88;;;27.58;;
20830;SDS011;10576;53.556;9.868;2022-10-31T03:36:31;38.30;;;27.92;;
20830;SDS011;10576;53.556;9.868;2022-10-31T03:38:59;42.20;;;27.45;;
20830;SDS011;10576;53.556;9.868;2022-10-31T03:41:30;46.72;;;27.90;;
20830;SDS011;10576;53.556;9.868;2022-10-31T03:44:04;42.45;;;27.55;;
20830;SDS011;10576;53.556;9.868;2022-10-31T03:46:34;47.50;;;28.17;;
20830;SDS011;10576;53.556;9.868;2022-10-31T03:49:00;43.40;;;27.80;;
20830;SDS011;10576;53.556;9.868;2022-10-31T03:51:29;40.83;;;27.57;;
20830;SDS011;10576;53.556;9.868;2022-10-31T03:59:35;43.42;;;28.65;;
20830;SDS011;10576;53.556;9.868;2022-10-31T04:02:06;45.65;;;27.75;;
20830;SDS011;10576;53.556;9.868;2022-10-31T04:04:36;43.75;;;28.35;;
20830;SDS011;10576;53.556;9.868;2022-10-31T04:07:03;42.72;;;28.42;;
20830;SDS011;10576;53.556;9.868;2022-10-31T04:09:32;42.28;;;26.75;;
20830;SDS011;10576;53.556;9.868;2022-10-31T04:12:01;37.28;;;26.90;;
20830;SDS011;10576;53.556;9.868;2022-10-31T04:14:31;43.10;;;28.13;;
20830;SDS011;10576;53.556;9.868;2022-10-31T04:16:59;44.10;;;28.48;;
20830;SDS011;10576;53.556;9.868;2022-10-31T04:19:27;46.25;;;29.55;;
20830;SDS011;10576;53.556;9.868;2022-10-31T04:21:52;50.03;;;29.45;;
20830;SDS011;10576;53.556;9.868;2022-10-31T04:24:18;44.80;;;27.95;;
20830;SDS011;10576;53.556;9.868;2022-10-31T04:26:44;55.20;;;31.00;;
20830;SDS011;10576;53.556;9.868;2022-10-31T04:29:09;55.97;;;31.80;;
20830;SDS011;10576;53.556;9.868;2022-10-31T04:31:35;53.97;;;32.57;;
20830;SDS011;10576;53.556;9.868;2022-10-31T04:34:00;53.07;;;31.70;;
20830;SDS011;10576;53.556;9.868;2022-10-31T04:36:26;59.77;;;32.67;;
20830;SDS011;10576;53.556;9.868;2022-10-31T04:38:52;59.23;;;33.23;;
20830;SDS011;10576;53.556;9.868;2022-10-31T04:41:17;53.93;;;32.37;;
20830;SDS011;10576;53.556;9.868;2022-10-31T04:43:43;54.47;;;32.37;;
20830;SDS011;10576;53.556;9.868;2022-10-31T04:46:09;51.80;;;32.90;;
20830;SDS011;10576;53.556;9.868;2022-10-31T04:48:34;62.93;;;33.47;;
20830;SDS011;10576;53.556;9.868;2022-10-31T04:51:00;58.00;;;33.28;;
20830;SDS011;10576;53.556;9.868;2022-10-31T04:53:26;68.95;;;36.25;;
20830;SDS011;10576;53.556;9.868;2022-10-31T04:55:52;56.72;;;34.53;;
20830;SDS011;10576;53.556;9.868;2022-10-31T04:58:18;53.73;;;33.07;;
20830;SDS011;10576;53.556;9.868;2022-10-31T05:00:44;51.47;;;33.25;;
20830;SDS011;10576;53.556;9.868;2022-10-31T05:03:09;62.80;;;36.50;;
20830;SDS011;10576;53.556;9.868;2022-10-31T05:05:35;70.85;;;37.15;;
20830;SDS011;10576;53.556;9.868;2022-10-31T05:08:01;54.72;;;34.75;;
20830;SDS011;10576;53.556;9.868;2022-10-31T05:10:28;55.47;;;34.58;;
20830;SDS011;10576;53.556;9.868;2022-10-31T05:12:55;53.65;;;33.33;;
20830;SDS011;10576;53.556;9.868;2022-10-31T05:15:23;47.28;;;32.85;;
20830;SDS011;10576;53.556;9.868;2022-10-31T05:17:50;50.33;;;33.30;;
20830;SDS011;10576;53.556;9.868;2022-10-31T05:20:18;51.20;;;33.40;;
20830;SDS011;10576;53.556;9.868;2022-10-31T05:22:51;62.72;;;33.50;;
20830;SDS011;10576;53.556;9.868;2022-10-31T05:25:19;62.05;;;33.55;;
20830;SDS011;10576;53.556;9.868;2022-10-31T05:27:46;55.88;;;32.80;;
20830;SDS011;10576;53.556;9.868;2022-10-31T05:30:14;57.90;;;32.03;;
20830;SDS011;10576;53.556;9.868;2022-10-31T05:32:45;61.85;;;32.63;;
20830;SDS011;10576;53.556;9.868;2022-10-31T05:35:13;54.17;;;30.88;;
20830;SDS011;10576;53.556;9.868;2022-10-31T05:37:42;45.30;;;30.20;;
20830;SDS011;10576;53.556;9.868;2022-10-31T05:40:09;79.82;;;32.58;;
20830;SDS011;10576;53.556;9.868;2022-10-31T05:42:40;71.60;;;31.20;;
20830;SDS011;10576;53.556;9.868;2022-10-31T05:45:07;65.80;;;30.98;;
20830;SDS011;10576;53.556;9.868;2022-10-31T05:47:34;85.75;;;31.52;;
20830;SDS011;10576;53.556;9.868;2022-10-31T05:50:00;79.80;;;31.58;;
20830;SDS011;10576;53.556;9.868;2022-10-31T05:52:26;65.72;;;31.50;;
20830;SDS011;10576;53.556;9.868;2022-10-31T05:54:51;66.80;;;30.70;;
20830;SDS011;10576;53.556;9.868;2022-10-31T05:57:17;56.35;;;30.05;;
20830;SDS011;10576;53.556;9.868;2022-10-31T05:59:43;73.15;;;30.45;;
20830;SDS011;10576;53.556;9.868;2022-10-31T06:02:08;147.25;;;33.35;;
20830;SDS011;10576;53.556;9.868;2022-10-31T06:04:34;51.53;;;29.08;;
20830;SDS011;10576;53.556;9.868;2022-10-31T06:07:00;68.75;;;30.08;;
20830;SDS011;10576;53.556;9.868;2022-10-31T06:09:25;58.08;;;29.15;;
20830;SDS011;10576;53.556;9.868;2022-10-31T06:11:51;48.25;;;28.33;;
20830;SDS011;10576;53.556;9.868;2022-10-31T06:14:17;51.95;;;28.33;;
20830;SDS011;10576;53.556;9.868;2022-10-31T06:16:42;76.13;;;28.77;;
20830;SDS011;10576;53.556;9.868;2022-10-31T06:19:08;49.57;;;26.43;;
20830;SDS011;10576;53.556;9.868;2022-10-31T06:21:33;86.00;;;28.23;;
20830;SDS011;10576;53.556;9.868;2022-10-31T06:23:59;52.87;;;27.07;;
20830;SDS011;10576;53.556;9.868;2022-10-31T06:26:25;63.73;;;25.47;;
20830;SDS011;10576;53.556;9.868;2022-10-31T06:28:50;73.40;;;26.43;;
20830;SDS011;10576;53.556;9.868;2022-10-31T06:31:16;41.60;;;26.57;;
20830;SDS011;10576;53.556;9.868;2022-10-31T06:33:42;63.22;;;26.55;;
20830;SDS011;10576;53.556;9.868;2022-10-31T06:36:08;35.97;;;24.67;;
20830;SDS011;10576;53.556;9.868;2022-10-31T06:38:34;32.42;;;23.98;;
20830;SDS011;10576;53.556;9.868;2022-10-31T06:41:03;34.53;;;24.80;;
20830;SDS011;10576;53.556;9.868;2022-10-31T06:43:29;37.42;;;24.70;;
20830;SDS011;10576;53.556;9.868;2022-10-31T06:45:55;30.38;;;22.75;;
20830;SDS011;10576;53.556;9.868;2022-10-31T06:48:21;29.10;;;22.58;;
20830;SDS011;10576;53.556;9.868;2022-10-31T06:50:47;34.43;;;21.50;;
20830;SDS011;10576;53.556;9.868;2022-10-31T06:53:12;42.57;;;21.67;;
20830;SDS011;10576;53.556;9.868;2022-10-31T06:55:41;31.65;;;20.75;;
20830;SDS011;10576;53.556;9.868;2022-10-31T06:58:08;43.50;;;19.75;;
20830;SDS011;10576;53.556;9.868;2022-10-31T07:00:34;63.10;;;21.92;;
20830;SDS011;10576;53.556;9.868;2022-10-31T07:03:04;29.47;;;20.17;;
20830;SDS011;10576;53.556;9.868;2022-10-31T07:05:31;48.55;;;21.48;;
20830;SDS011;10576;53.556;9.868;2022-10-31T07:08:02;57.87;;;20.93;;
20830;SDS011;10576;53.556;9.868;2022-10-31T07:10:29;30.70;;;20.38;;
20830;SDS011;10576;53.556;9.868;2022-10-31T07:12:58;41.28;;;20.60;;
20830;SDS011;10576;53.556;9.868;2022-10-31T07:15:25;63.03;;;21.55;;
20830;SDS011;10576;53.556;9.868;2022-10-31T07:17:52;132.70;;;25.30;;
20830;SDS011;10576;53.556;9.868;2022-10-31T07:20:19;127.78;;;23.58;;
20830;SDS011;10576;53.556;9.868;2022-10-31T07:22:44;45.90;;;20.00;;
20830;SDS011;10576;53.556;9.868;2022-10-31T07:25:10;107.57;;;22.13;;
20830;SDS011;10576;53.556;9.868;2022-10-31T07:27:39;124.30;;;23.33;;
20830;SDS011;10576;53.556;9.868;2022-10-31T07:30:06;44.83;;;19.42;;
20830;SDS011;10576;53.556;9.868;2022-10-31T07:32:37;43.08;;;19.17;;
20830;SDS011;10576;53.556;9.868;2022-10-31T07:35:11;41.30;;;18.65;;
20830;SDS011;10576;53.556;9.868;2022-10-31T07:37:41;53.95;;;19.27;;
20830;SDS011;10576;53.556;9.868;2022-10-31T07:40:07;72.00;;;19.33;;
20830;SDS011;10576;53.556;9.868;2022-10-31T07:42:37;39.95;;;19.08;;
20830;SDS011;10576;53.556;9.868;2022-10-31T07:45:04;43.30;;;18.55;;
20830;SDS011;10576;53.556;9.868;2022-10-31T07:47:41;38.13;;;18.57;;
20830;SDS011;10576;53.556;9.868;2022-10-31T07:50:12;56.83;;;18.30;;
20830;SDS011;10576;53.556;9.868;2022-10-31T07:52:39;58.65;;;18.55;;
20830;SDS011;10576;53.556;9.868;2022-10-31T07:55:05;57.53;;;19.98;;
20830;SDS011;10576;53.556;9.868;2022-10-31T07:57:31;49.28;;;18.80;;
20830;SDS011;10576;53.556;9.868;2022-10-31T07:59:57;70.80;;;20.50;;
20830;SDS011;10576;53.556;9.868;2022-10-31T08:02:23;35.95;;;19.60;;
20830;SDS011;10576;53.556;9.868;2022-10-31T08:04:49;37.03;;;18.90;;
20830;SDS011;10576;53.556;9.868;2022-10-31T08:07:15;42.57;;;19.37;;
20830;SDS011;10576;53.556;9.868;2022-10-31T08:09:40;33.23;;;19.43;;
20830;SDS011;10576;53.556;9.868;2022-10-31T08:12:06;63.73;;;20.40;;
20830;SDS011;10576;53.556;9.868;2022-10-31T08:14:32;85.43;;;20.40;;
20830;SDS011;10576;53.556;9.868;2022-10-31T08:16:57;47.17;;;19.93;;
20830;SDS011;10576;53.556;9.868;2022-10-31T08:19:23;36.77;;;17.83;;
20830;SDS011;10576;53.556;9.868;2022-10-31T08:21:52;75.47;;;20.20;;
20830;SDS011;10576;53.556;9.868;2022-10-31T08:24:20;34.95;;;17.85;;
20830;SDS011;10576;53.556;9.868;2022-10-31T08:26:46;30.40;;;18.92;;
20830;SDS011;10576;53.556;9.868;2022-10-31T08:29:12;28.37;;;18.70;;
20830;SDS011;10576;53.556;9.868;2022-10-31T08:31:39;34.33;;;18.85;;
20830;SDS011;10576;53.556;9.868;2022-10-31T08:34:05;26.23;;;18.33;;
20830;SDS011;10576;53.556;9.868;2022-10-31T08:36:31;81.03;;;18.97;;
20830;SDS011;10576;53.556;9.868;2022-10-31T08:38:56;32.03;;;18.03;;
20830;SDS011;10576;53.556;9.868;2022-10-31T08:41:22;29.30;;;18.27;;
20830;SDS011;10576;53.556;9.868;2022-10-31T08:43:48;20.38;;;16.98;;
20830;SDS011;10576;53.556;9.868;2022-10-31T08:46:14;30.95;;;18.58;;
20830;SDS011;10576;53.556;9.868;2022-10-31T08:48:40;48.25;;;17.88;;
20830;SDS011;10576;53.556;9.868;2022-10-31T08:51:06;47.38;;;18.83;;
20830;SDS011;10576;53.556;9.868;2022-10-31T08:53:31;25.23;;;17.08;;
20830;SDS011;10576;53.556;9.868;2022-10-31T08:55:57;23.95;;;17.25;;
20830;SDS011;10576;53.556;9.868;2022-10-31T08:58:23;24.98;;;16.67;;
20830;SDS011;10576;53.556;9.868;2022-10-31T09:00:51;55.28;;;18.35;;
20830;SDS011;10576;53.556;9.868;2022-10-31T09:03:20;35.33;;;16.75;;
20830;SDS011;10576;53.556;9.868;2022-10-31T09:05:50;22.52;;;16.25;;
20830;SDS011;10576;53.556;9.868;2022-10-31T09:08:19;44.10;;;17.10;;
20830;SDS011;10576;53.556;9.868;2022-10-31T09:10:45;28.05;;;16.98;;
20830;SDS011;10576;53.556;9.868;2022-10-31T09:13:12;28.77;;;16.03;;
20830;SDS011;10576;53.556;9.868;2022-10-31T09:15:39;25.38;;;17.35;;
20830;SDS011;10576;53.556;9.868;2022-10-31T09:18:07;20.53;;;16.73;;
20830;SDS011;10576;53.556;9.868;2022-10-31T09:20:34;20.30;;;16.38;;
20830;SDS011;10576;53.556;9.868;2022-10-31T09:23:03;22.15;;;16.90;;
20830;SDS011;10576;53.556;9.868;2022-10-31T09:25:30;20.58;;;17.30;;
20830;SDS011;10576;53.556;9.868;2022-10-31T09:27:59;20.05;;;16.83;;
20830;SDS011;10576;53.556;9.868;2022-10-31T09:30:26;22.90;;;16.52;;
20830;SDS011;10576;53.556;9.868;2022-10-31T09:32:54;23.67;;;16.75;;
20830;SDS011;10576;53.556;9.868;2022-10-31T09:35:24;26.65;;;16.75;;
20830;SDS011;10576;53.556;9.868;2022-10-31T09:38:09;20.95;;;17.35;;
20830;SDS011;10576;53.556;9.868;2022-10-31T09:40:41;24.25;;;17.17;;
20830;SDS011;10576;53.556;9.868;2022-10-31T09:51:10;21.63;;;16.55;;
20830;SDS011;10576;53.556;9.868;2022-10-31T09:56:15;25.75;;;17.35;;
20830;SDS011;10576;53.556;9.868;2022-10-31T09:58:53;21.98;;;17.40;;
20830;SDS011;10576;53.556;9.868;2022-10-31T10:01:29;20.27;;;16.52;;
20830;SDS011;10576;53.556;9.868;2022-10-31T10:06:42;19.80;;;16.67;;
20830;SDS011;10576;53.556;9.868;2022-10-31T10:09:11;23.73;;;16.42;;
20830;SDS011;10576;53.556;9.868;2022-10-31T10:17:11;23.58;;;16.73;;
20830;SDS011;10576;53.556;9.868;2022-10-31T10:25:38;22.42;;;17.20;;
20830;SDS011;10576;53.556;9.868;2022-10-31T10:28:10;27.05;;;17.35;;
20830;SDS011;10576;53.556;9.868;2022-10-31T10:36:08;26.10;;;15.02;;
20830;SDS011;10576;53.556;9.868;2022-10-31T10:41:20;22.48;;;15.38;;
20830;SDS011;10576;53.556;9.868;2022-10-31T10:43:50;24.05;;;16.52;;
20830;SDS011;10576;53.556;9.868;2022-10-31T10:49:12;22.27;;;16.02;;
20830;SDS011;10576;53.556;9.868;2022-10-31T10:51:45;18.77;;;15.43;;
20830;SDS011;10576;53.556;9.868;2022-10-31T10:54:22;24.27;;;16.20;;
20830;SDS011;10576;53.556;9.868;2022-10-31T10:56:52;23.35;;;17.00;;
20830;SDS011;10576;53.556;9.868;2022-10-31T10:59:34;25.55;;;17.63;;
20830;SDS011;10576;53.556;9.868;2022-10-31T11:02:00;22.17;;;17.50;;
20830;SDS011;10576;53.556;9.868;2022-10-31T11:04:31;21.80;;;17.05;;
20830;SDS011;10576;53.556;9.868;2022-10-31T11:07:08;22.20;;;16.30;;
20830;SDS011;10576;53.556;9.868;2022-10-31T11:09:35;23.60;;;17.25;;
20830;SDS011;10576;53.556;9.868;2022-10-31T11:12:07;21.92;;;17.33;;
20830;SDS011;10576;53.556;9.868;2022-10-31T11:14:44;24.60;;;18.23;;
20830;SDS011;10576;53.556;9.868;2022-10-31T11:17:29;24.58;;;17.92;;
20830;SDS011;10576;53.556;9.868;2022-10-31T11:20:06;23.27;;;15.90;;
20830;SDS011;10576;53.556;9.868;2022-10-31T11:22:59;23.87;;;15.83;;
20830;SDS011;10576;53.556;9.868;2022-10-31T11:28:21;24.85;;;16.67;;
20830;SDS011;10576;53.556;9.868;2022-10-31T11:30:47;25.55;;;16.25;;
20830;SDS011;10576;53.556;9.868;2022-10-31T11:33:57;28.20;;;17.58;;
20830;SDS011;10576;53.556;9.868;2022-10-31T11:36:20;28.48;;;18.85;;
20830;SDS011;10576;53.556;9.868;2022-10-31T11:38:49;29.98;;;19.45;;
20830;SDS011;10576;53.556;9.868;2022-10-31T11:44:05;29.33;;;19.02;;
20830;SDS011;10576;53.556;9.868;2022-10-31T11:46:43;36.17;;;22.70;;
20830;SDS011;10576;53.556;9.868;2022-10-31T11:49:16;35.80;;;23.08;;
20830;SDS011;10576;53.556;9.868;2022-10-31T11:52:14;37.15;;;24.08;;
20830;SDS011;10576;53.556;9.868;2022-10-31T11:54:48;38.17;;;25.73;;
20830;SDS011;10576;53.556;9.868;2022-10-31T11:57:22;37.35;;;25.55;;
20830;SDS011;10576;53.556;9.868;2022-10-31T11:59:51;43.03;;;25.65;;
20830;SDS011;10576;53.556;9.868;2022-10-31T12:02:19;45.83;;;28.00;;
20830;SDS011;10576;53.556;9.868;2022-10-31T12:04:46;49.92;;;29.30;;
20830;SDS011;10576;53.556;9.868;2022-10-31T12:07:20;48.78;;;28.88;;
20830;SDS011;10576;53.556;9.868;2022-10-31T12:09:48;46.72;;;29.92;;
20830;SDS011;10576;53.556;9.868;2022-10-31T12:17:34;47.97;;;29.50;;
20830;SDS011;10576;53.556;9.868;2022-10-31T12:20:18;46.47;;;29.70;;
20830;SDS011;10576;53.556;9.868;2022-10-31T12:25:53;38.57;;;25.27;;
20830;SDS011;10576;53.556;9.868;2022-10-31T12:36:43;30.50;;;23.20;;
20830;SDS011;10576;53.556;9.868;2022-10-31T12:47:57;33.63;;;24.08;;
20830;SDS011;10576;53.556;9.868;2022-10-31T12:58:37;35.27;;;26.27;;
20830;SDS011;10576;53.556;9.868;2022-10-31T13:03:57;37.33;;;27.25;;
20830;SDS011;10576;53.556;9.868;2022-10-31T13:06:33;37.63;;;26.98;;
20830;SDS011;10576;53.556;9.868;2022-10-31T13:09:08;34.90;;;26.75;;
20830;SDS011;10576;53.556;9.868;2022-10-31T13:11:48;35.47;;;27.27;;
20830;SDS011;10576;53.556;9.868;2022-10-31T13:16:53;28.30;;;23.13;;
20830;SDS011;10576;53.556;9.868;2022-10-31T13:19:38;29.73;;;22.70;;
20830;SDS011;10576;53.556;9.868;2022-10-31T13:22:16;34.63;;;23.80;;
20830;SDS011;10576;53.556;9.868;2022-10-31T13:24:54;32.47;;;23.58;;
20830;SDS011;10576;53.556;9.868;2022-10-31T13:30:22;32.15;;;23.83;;
20830;SDS011;10576;53.556;9.868;2022-10-31T13:33:02;30.92;;;23.42;;
20830;SDS011;10576;53.556;9.868;2022-10-31T13:35:46;32.88;;;23.27;;
20830;SDS011;10576;53.556;9.868;2022-10-31T13:38:20;30.40;;;23.02;;
20830;SDS011;10576;53.556;9.868;2022-10-31T13:41:03;27.92;;;21.23;;
20830;SDS011;10576;53.556;9.868;2022-10-31T13:44:12;26.10;;;20.23;;
20830;SDS011;10576;53.556;9.868;2022-10-31T13:46:38;26.08;;;20.05;;
20830;SDS011;10576;53.556;9.868;2022-10-31T13:51:51;25.13;;;19.13;;
20830;SDS011;10576;53.556;9.868;2022-10-31T13:54:31;25.25;;;19.25;;
20830;SDS011;10576;53.556;9.868;2022-10-31T13:56:58;22.30;;;17.60;;
20830;SDS011;10576;53.556;9.868;2022-10-31T13:59:28;23.20;;;17.80;;
20830;SDS011;10576;53.556;9.868;2022-10-31T14:02:12;22.03;;;17.13;;
20830;SDS011;10576;53.556;9.868;2022-10-31T14:04:50;21.58;;;15.88;;
20830;SDS011;10576;53.556;9.868;2022-10-31T14:07:20;18.40;;;15.45;;
20830;SDS011;10576;53.556;9.868;2022-10-31T14:15:18;14.52;;;12.32;;
20830;SDS011;10576;53.556;9.868;2022-10-31T14:17:54;16.90;;;12.40;;
20830;SDS011;10576;53.556;9.868;2022-10-31T14:22:56;16.80;;;13.93;;
20830;SDS011;10576;53.556;9.868;2022-10-31T14:27:59;16.80;;;13.25;;
20830;SDS011;10576;53.556;9.868;2022-10-31T14:30:27;17.90;;;13.70;;
20830;SDS011;10576;53.556;9.868;2022-10-31T14:32:58;17.90;;;13.35;;
20830;SDS011;10576;53.556;9.868;2022-10-31T14:35:35;19.05;;;13.73;;
20830;SDS011;10576;53.556;9.868;2022-10-31T14:38:20;20.30;;;13.95;;
20830;SDS011;10576;53.556;9.868;2022-10-31T14:44:04;18.33;;;13.10;;
20830;SDS011;10576;53.556;9.868;2022-10-31T14:52:28;16.30;;;13.00;;
20830;SDS011;10576;53.556;9.868;2022-10-31T14:54:54;17.58;;;13.60;;
20830;SDS011;10576;53.556;9.868;2022-10-31T14:57:25;15.18;;;12.60;;
20830;SDS011;10576;53.556;9.868;2022-10-31T15:00:36;16.00;;;13.30;;
20830;SDS011;10576;53.556;9.868;2022-10-31T15:05:22;17.38;;;12.75;;
20830;SDS011;10576;53.556;9.868;2022-10-31T15:07:50;15.95;;;12.40;;
20830;SDS011;10576;53.556;9.868;2022-10-31T15:10:21;15.88;;;12.70;;
20830;SDS011;10576;53.556;9.868;2022-10-31T15:13:14;15.90;;;12.75;;
20830;SDS011;10576;53.556;9.868;2022-10-31T15:15:44;17.77;;;13.18;;
20830;SDS011;10576;53.556;9.868;2022-10-31T15:18:17;18.45;;;13.23;;
20830;SDS011;10576;53.556;9.868;2022-10-31T15:20:48;19.40;;;14.25;;
20830;SDS011;10576;53.556;9.868;2022-10-31T15:23:17;17.30;;;13.83;;
20830;SDS011;10576;53.556;9.868;2022-10-31T15:25:47;18.35;;;13.73;;
20830;SDS011;10576;53.556;9.868;2022-10-31T15:28:21;19.23;;;14.10;;
20830;SDS011;10576;53.556;9.868;2022-10-31T15:30:49;17.60;;;13.70;;
20830;SDS011;10576;53.556;9.868;2022-10-31T15:33:20;18.35;;;13.40;;
20830;SDS011;10576;53.556;9.868;2022-10-31T15:35:57;17.15;;;13.63;;
20830;SDS011;10576;53.556;9.868;2022-10-31T15:38:25;19.35;;;14.27;;
20830;SDS011;10576;53.556;9.868;2022-10-31T15:40:56;18.58;;;13.45;;
20830;SDS011;10576;53.556;9.868;2022-10-31T15:43:35;19.43;;;14.07;;
20830;SDS011;10576;53.556;9.868;2022-10-31T15:46:03;18.13;;;13.20;;
20830;SDS011;10576;53.556;9.868;2022-10-31T15:48:32;17.75;;;13.70;;
20830;SDS011;10576;53.556;9.868;2022-10-31T15:50:59;18.20;;;13.27;;
20830;SDS011;10576;53.556;9.868;2022-10-31T15:53:26;19.40;;;14.20;;
20830;SDS011;10576;53.556;9.868;2022-10-31T15:56:00;16.55;;;13.80;;
20830;SDS011;10576;53.556;9.868;2022-10-31T15:58:33;20.45;;;14.18;;
20830;SDS011;10576;53.556;9.868;2022-10-31T16:03:44;19.13;;;14.43;;
20830;SDS011;10576;53.556;9.868;2022-10-31T16:06:24;20.35;;;14.13;;
20830;SDS011;10576;53.556;9.868;2022-10-31T16:08:50;23.30;;;15.07;;
20830;SDS011;10576;53.556;9.868;2022-10-31T16:11:18;19.60;;;14.87;;
20830;SDS011;10576;53.556;9.868;2022-10-31T16:16:30;21.77;;;15.43;;
20830;SDS011;10576;53.556;9.868;2022-10-31T16:18:57;22.08;;;15.48;;
20830;SDS011;10576;53.556;9.868;2022-10-31T16:21:28;22.73;;;16.02;;
20830;SDS011;10576;53.556;9.868;2022-10-31T16:24:00;23.73;;;15.77;;
20830;SDS011;10576;53.556;9.868;2022-10-31T16:26:27;20.85;;;15.70;;
20830;SDS011;10576;53.556;9.868;2022-10-31T16:28:54;20.80;;;14.63;;
20830;SDS011;10576;53.556;9.868;2022-10-31T16:31:26;22.08;;;15.90;;
20830;SDS011;10576;53.556;9.868;2022-10-31T16:34:01;21.60;;;16.05;;
20830;SDS011;10576;53.556;9.868;2022-10-31T16:38:55;22.45;;;15.77;;
20830;SDS011;10576;53.556;9.868;2022-10-31T16:41:21;20.58;;;14.75;;
20830;SDS011;10576;53.556;9.868;2022-10-31T16:43:48;22.88;;;15.57;;
20830;SDS011;10576;53.556;9.868;2022-10-31T16:46:16;21.13;;;14.80;;
20830;SDS011;10576;53.556;9.868;2022-10-31T16:48:48;21.20;;;14.98;;
20830;SDS011;10576;53.556;9.868;2022-10-31T16:51:14;20.55;;;14.90;;
20830;SDS011;10576;53.556;9.868;2022-10-31T16:53:39;22.23;;;15.30;;
20830;SDS011;10576;53.556;9.868;2022-10-31T16:56:05;22.30;;;14.70;;
20830;SDS011;10576;53.556;9.868;2022-10-31T16:58:40;20.60;;;14.93;;
20830;SDS011;10576;53.556;9.868;2022-10-31T17:01:06;23.50;;;15.43;;
20830;SDS011;10576;53.556;9.868;2022-10-31T17:03:32;24.33;;;15.75;;
20830;SDS011;10576;53.556;9.868;2022-10-31T17:05:57;25.20;;;16.27;;
20830;SDS011;10576;53.556;9.868;2022-10-31T17:08:23;23.00;;;16.57;;